createdAt,value
2023-08-05T00:00:49.042Z,18.14
2023-08-05T00:03:17.320Z,18.10
2023-08-05T00:05:45.727Z,18.06
2023-08-05T00:08:14.090Z,18.02
2023-08-05T00:10:48.881Z,17.98
2023-08-05T00:13:17.247Z,17.94
2023-08-05T00:15:45.586Z,17.89
2023-08-05T00:18:13.918Z,17.84
2023-08-05T00:20:42.225Z,17.81
2023-08-05T00:23:10.524Z,17.76
2023-08-05T00:25:38.792Z,17.68
2023-08-05T00:28:07.065Z,17.64
2023-08-05T00:30:35.386Z,17.58
2023-08-05T00:33:03.689Z,17.58
2023-08-05T00:35:31.979Z,17.53
2023-08-05T00:38:00.276Z,17.53
2023-08-05T00:40:28.561Z,17.49
2023-08-05T00:42:56.806Z,17.44
2023-08-05T00:45:25.307Z,17.45
2023-08-05T00:47:53.933Z,17.41
2023-08-05T00:50:23.382Z,17.40
2023-08-05T00:52:52.478Z,17.38
2023-08-05T00:55:21.064Z,17.34
2023-08-05T00:57:49.365Z,17.36
2023-08-05T01:00:17.651Z,17.34
2023-08-05T01:02:45.946Z,17.35
2023-08-05T01:05:14.344Z,17.34
2023-08-05T01:07:44.127Z,17.34
2023-08-05T01:10:12.993Z,17.34
2023-08-05T01:12:43.047Z,17.33
2023-08-05T01:15:11.416Z,17.34
2023-08-05T01:17:39.852Z,17.34
2023-08-05T01:20:11.417Z,17.33
2023-08-05T01:22:45.170Z,17.34
2023-08-05T01:25:32.725Z,17.35
2023-08-05T01:28:03.329Z,17.36
2023-08-05T01:30:33.203Z,17.35
2023-08-05T01:33:05.118Z,17.35
2023-08-05T01:35:33.598Z,17.32
2023-08-05T01:38:01.951Z,17.33
2023-08-05T01:40:30.345Z,17.32
2023-08-05T01:43:03.767Z,17.33
2023-08-05T01:45:34.620Z,17.29
2023-08-05T01:48:02.872Z,17.29
2023-08-05T01:50:31.667Z,17.29
2023-08-05T01:52:59.996Z,17.29
2023-08-05T01:55:29.124Z,17.30
2023-08-05T01:57:57.385Z,17.32
2023-08-05T02:00:25.760Z,17.33
2023-08-05T02:02:54.299Z,17.33
2023-08-05T02:05:22.932Z,17.34
2023-08-05T02:07:51.356Z,17.33
2023-08-05T02:10:19.731Z,17.31
2023-08-05T02:12:47.990Z,17.29
2023-08-05T02:15:16.328Z,17.28
2023-08-05T02:17:44.602Z,17.27
2023-08-05T02:20:13.084Z,17.25
2023-08-05T02:22:41.393Z,17.24
2023-08-05T02:25:09.741Z,17.21
2023-08-05T02:27:38.083Z,17.22
2023-08-05T02:30:07.500Z,17.20
2023-08-05T02:32:36.140Z,17.16
2023-08-05T02:35:04.798Z,17.12
2023-08-05T02:37:33.111Z,17.09
2023-08-05T02:40:01.385Z,17.05
2023-08-05T02:42:29.728Z,16.99
2023-08-05T02:44:59.351Z,16.96
2023-08-05T02:47:27.719Z,16.90
2023-08-05T02:49:57.462Z,16.87
2023-08-05T02:52:26.475Z,16.83
2023-08-05T02:54:54.845Z,16.77
2023-08-05T02:57:23.114Z,16.72
2023-08-05T02:59:51.479Z,16.66
2023-08-05T03:02:19.725Z,16.62
2023-08-05T03:04:47.974Z,16.58
2023-08-05T03:07:16.257Z,16.56
2023-08-05T03:09:44.620Z,16.50
2023-08-05T03:12:13.148Z,16.47
2023-08-05T03:14:41.453Z,16.43
2023-08-05T03:17:11.894Z,16.41
2023-08-05T03:19:40.755Z,16.38
2023-08-05T03:22:10.263Z,16.35
2023-08-05T03:24:43.584Z,16.33
2023-08-05T03:27:11.949Z,16.31
2023-08-05T03:29:41.837Z,16.29
2023-08-05T03:32:12.540Z,16.24
2023-08-05T03:34:41.833Z,16.20
2023-08-05T03:37:10.313Z,16.15
2023-08-05T03:39:39.137Z,15.88
2023-08-05T03:42:07.727Z,-149.27
2023-08-05T03:44:36.169Z,-149.27
2023-08-05T03:47:04.733Z,-149.27
2023-08-05T03:49:33.007Z,-149.27
2023-08-05T03:52:01.311Z,-149.27
2023-08-05T03:54:29.635Z,-149.27
2023-08-05T03:57:00.259Z,-149.27
2023-08-05T03:59:29.100Z,-149.27
2023-08-05T04:01:59.983Z,-149.27
2023-08-05T04:04:30.351Z,-149.27
2023-08-05T04:06:58.656Z,-149.27
2023-08-05T04:09:26.936Z,-149.27
2023-08-05T04:11:58.499Z,-149.27
2023-08-05T04:14:26.820Z,-149.27
2023-08-05T04:16:56.349Z,-149.27
2023-08-05T04:19:25.106Z,-149.27
2023-08-05T04:21:53.914Z,-149.27
2023-08-05T04:24:25.291Z,-149.27
2023-08-05T04:26:54.364Z,-149.27
2023-08-05T04:29:25.867Z,-149.27
2023-08-05T04:31:54.574Z,-149.27
2023-08-05T04:34:23.085Z,-149.27
2023-08-05T04:36:53.249Z,-149.27
2023-08-05T04:39:22.784Z,-149.27
2023-08-05T04:41:51.083Z,-149.27
2023-08-05T04:44:19.484Z,-149.27
2023-08-05T04:46:47.929Z,-149.27
2023-08-05T04:49:16.287Z,-149.27
2023-08-05T04:51:44.574Z,-149.27
2023-08-05T04:54:12.825Z,-149.27
2023-08-05T04:56:41.188Z,-149.27
2023-08-05T04:59:09.431Z,-149.27
2023-08-05T05:01:37.705Z,-149.27
2023-08-05T05:04:06.014Z,-149.27
2023-08-05T05:06:34.335Z,-149.27
2023-08-05T05:09:02.645Z,-149.27
2023-08-05T05:11:30.963Z,-149.27
2023-08-05T05:13:59.258Z,-149.27
2023-08-05T05:16:27.771Z,-149.27
2023-08-05T05:18:56.054Z,-149.27
2023-08-05T05:21:24.359Z,-149.27
2023-08-05T05:23:52.638Z,-149.27
2023-08-05T05:26:20.929Z,-149.27
2023-08-05T05:28:49.175Z,-149.27
2023-08-05T05:31:17.444Z,-149.27
2023-08-05T05:33:48.690Z,-149.27
2023-08-05T05:36:17.004Z,-149.27
2023-08-05T05:38:45.289Z,-149.27
2023-08-05T05:41:13.572Z,-149.27
2023-08-05T05:43:41.848Z,-149.27
2023-08-05T05:46:10.730Z,-149.27
2023-08-05T05:48:39.035Z,-149.27
2023-08-05T05:51:07.299Z,-149.27
2023-08-05T05:53:35.827Z,-149.27
2023-08-05T05:56:06.079Z,-149.27
2023-08-05T05:58:36.313Z,-149.27
2023-08-05T06:01:04.707Z,-149.27
2023-08-05T06:03:35.221Z,-149.27
2023-08-05T06:06:03.751Z,-149.27
2023-08-05T06:08:32.342Z,-149.27
2023-08-05T06:11:08.237Z,-149.27
2023-08-05T06:13:36.605Z,-149.27
2023-08-05T06:16:05.687Z,-149.27
2023-08-05T06:18:34.016Z,-149.27
2023-08-05T06:21:27.269Z,-149.27
2023-08-05T06:23:55.637Z,-149.27
2023-08-05T06:26:40.328Z,-149.27
2023-08-05T06:29:08.661Z,-149.27
2023-08-05T06:31:39.958Z,-149.27
2023-08-05T06:34:08.251Z,-149.27
2023-08-05T06:36:36.513Z,-149.27
2023-08-05T06:39:04.836Z,-149.27
2023-08-05T06:41:33.076Z,-149.27
2023-08-05T06:44:01.358Z,-149.27
2023-08-05T06:46:32.671Z,-149.27
2023-08-05T06:49:01.043Z,-149.27
2023-08-05T06:51:29.425Z,-149.27
2023-08-05T06:53:57.791Z,-149.27
2023-08-05T06:56:26.156Z,-149.27
2023-08-05T06:58:54.394Z,-149.27
2023-08-05T07:01:22.886Z,-149.27
2023-08-05T07:03:51.516Z,-149.27
2023-08-05T07:06:24.574Z,-149.27
2023-08-05T07:08:52.947Z,-149.27
2023-08-05T07:11:21.755Z,-149.27
2023-08-05T07:13:51.674Z,-149.27
2023-08-05T07:16:20.080Z,-149.27
2023-08-05T07:19:07.567Z,-149.27
2023-08-05T07:21:36.967Z,-149.27
2023-08-05T07:24:05.439Z,-149.27
2023-08-05T07:26:35.816Z,-149.27
2023-08-05T07:29:04.139Z,-149.27
2023-08-05T07:31:57.509Z,-149.27
2023-08-05T07:34:31.585Z,-149.27
2023-08-05T07:37:00.564Z,-149.27
2023-08-05T07:39:35.021Z,-149.27
2023-08-05T07:42:06.996Z,-149.27
2023-08-05T07:44:58.997Z,-149.27
2023-08-05T07:47:53.132Z,20.49
2023-08-05T07:50:23.925Z,20.32
2023-08-05T07:53:20.961Z,20.43
2023-08-05T07:55:49.477Z,20.36
2023-08-05T07:58:20.494Z,20.43
2023-08-05T08:00:49.037Z,20.44
2023-08-05T08:03:17.330Z,20.46
2023-08-05T08:05:45.674Z,20.51
2023-08-05T08:08:13.978Z,20.61
2023-08-05T08:11:07.061Z,20.71
2023-08-05T08:13:48.746Z,20.78
2023-08-05T08:16:42.087Z,20.86
2023-08-05T08:19:19.967Z,21.01
2023-08-05T08:22:13.298Z,21.15
2023-08-05T08:24:41.681Z,21.33
2023-08-05T08:27:10.040Z,21.48
2023-08-05T08:29:49.705Z,21.53
2023-08-05T08:32:18.064Z,-149.27
2023-08-05T08:34:46.288Z,-149.27
2023-08-05T08:37:14.592Z,-149.27
2023-08-05T08:39:42.975Z,-149.27
2023-08-05T08:42:11.286Z,-149.27
2023-08-05T08:44:40.973Z,-149.27
2023-08-05T08:47:09.466Z,-149.27
2023-08-05T08:49:38.448Z,-149.27
2023-08-05T08:52:08.633Z,-149.27
2023-08-05T08:54:37.207Z,-149.27
2023-08-05T08:57:06.732Z,-149.27
2023-08-05T08:59:35.198Z,-149.27
2023-08-05T09:02:04.795Z,-149.27
2023-08-05T09:04:36.714Z,-149.27
2023-08-05T09:07:05.478Z,-149.27
2023-08-05T09:09:34.929Z,-149.27
2023-08-05T09:12:04.311Z,-149.27
2023-08-05T09:14:33.108Z,-149.27
2023-08-05T09:17:03.634Z,-149.27
2023-08-05T09:19:32.338Z,-149.27
2023-08-05T09:22:06.811Z,-149.27
2023-08-05T09:24:36.263Z,-149.27
2023-08-05T09:27:18.896Z,-149.27
2023-08-05T09:29:50.729Z,-149.27
2023-08-05T09:32:37.038Z,-149.27
2023-08-05T09:35:30.924Z,-149.27
2023-08-05T09:38:01.543Z,-149.27
2023-08-05T09:40:37.804Z,-149.27
2023-08-05T09:43:09.097Z,-149.27
2023-08-05T09:45:39.897Z,-149.27
2023-08-05T09:48:35.887Z,-149.27
2023-08-05T09:51:07.707Z,-149.27
2023-08-05T09:54:00.073Z,-149.27
2023-08-05T09:56:31.570Z,-149.27
2023-08-05T09:59:16.408Z,-149.27
2023-08-05T10:01:50.154Z,-149.27
2023-08-05T10:04:22.122Z,-149.27
2023-08-05T10:06:52.914Z,-149.27
2023-08-05T10:09:21.411Z,-149.27
2023-08-05T10:11:50.308Z,-149.27
2023-08-05T10:14:23.994Z,-149.27
2023-08-05T10:16:53.377Z,-149.27
2023-08-05T10:19:29.997Z,-149.27
2023-08-05T10:22:11.823Z,-149.27
2023-08-05T10:25:02.877Z,-149.27
2023-08-05T10:27:35.861Z,-149.27
2023-08-05T10:30:20.622Z,-149.27
2023-08-05T10:32:54.797Z,-149.27
2023-08-05T10:35:44.118Z,-149.27
2023-08-05T10:38:43.907Z,-149.27
2023-08-05T11:40:57.240Z,32.69
2023-08-05T13:23:40.820Z,28.20
2023-08-05T13:26:09.325Z,28.59
2023-08-05T13:28:37.645Z,28.72
2023-08-05T13:31:06.641Z,29.36
2023-08-05T13:33:36.951Z,29.83
2023-08-05T13:36:06.907Z,30.02
2023-08-05T13:38:35.255Z,30.08
2023-08-05T13:41:03.575Z,30.11
2023-08-05T13:43:32.065Z,30.65
2023-08-05T13:46:03.237Z,32.58
2023-08-05T13:48:56.394Z,32.26
2023-08-05T13:51:42.147Z,31.97
2023-08-05T13:54:16.305Z,33.52
2023-08-05T13:56:55.016Z,33.97
2023-08-05T13:59:23.389Z,33.34
2023-08-05T16:02:44.282Z,24.99
2023-08-05T16:05:13.346Z,25.01
2023-08-05T16:07:41.705Z,25.01
2023-08-05T16:10:10.399Z,24.98
2023-08-05T16:12:38.819Z,24.83
2023-08-05T16:15:07.769Z,22.79
2023-08-05T16:17:36.110Z,22.71
2023-08-05T16:20:05.099Z,22.24
2023-08-05T16:22:33.598Z,21.76
2023-08-05T16:25:03.585Z,21.56
2023-08-05T16:27:32.461Z,21.35
2023-08-05T16:30:00.739Z,21.13
2023-08-05T16:32:29.401Z,20.15
2023-08-05T16:34:58.956Z,19.98
2023-08-05T16:37:27.271Z,19.80
2023-08-05T16:39:55.608Z,19.80
2023-08-05T16:42:23.906Z,-149.27
2023-08-05T16:44:52.239Z,-149.27
2023-08-05T16:47:20.528Z,-149.27
2023-08-05T16:49:48.807Z,-149.27
2023-08-05T16:52:17.316Z,-149.27
2023-08-05T16:54:47.253Z,-149.27
2023-08-05T16:57:15.621Z,-149.27
2023-08-05T16:59:43.892Z,-149.27
2023-08-05T17:02:12.171Z,-149.27
2023-08-05T17:04:40.481Z,-149.27
2023-08-05T17:07:08.767Z,-149.27
2023-08-05T17:09:37.090Z,-149.27
2023-08-05T17:12:05.738Z,-149.27
2023-08-05T17:14:34.137Z,-149.27
2023-08-05T17:17:03.448Z,-149.27
2023-08-05T17:19:32.684Z,-149.27
2023-08-05T17:22:01.056Z,-149.27
2023-08-05T17:24:29.394Z,-149.27
2023-08-05T17:26:57.669Z,-149.27
2023-08-05T17:29:26.054Z,-149.27
2023-08-05T17:31:54.542Z,-149.27
2023-08-05T17:34:23.021Z,-149.27
2023-08-05T17:36:51.313Z,-149.27
2023-08-05T17:39:19.888Z,-149.27
2023-08-05T17:41:48.171Z,-149.27
2023-08-05T17:44:16.931Z,-149.27
2023-08-05T17:46:48.138Z,-149.27
2023-08-05T17:49:16.456Z,-149.27
2023-08-05T17:51:44.880Z,-149.27
2023-08-05T17:54:13.808Z,-149.27
2023-08-05T17:56:43.013Z,-149.27
2023-08-05T17:59:13.859Z,-149.27
2023-08-05T18:01:42.339Z,-149.27
2023-08-05T18:04:11.460Z,-149.27
2023-08-05T18:06:39.770Z,-149.27
2023-08-05T18:09:08.195Z,-149.27
2023-08-05T18:11:36.562Z,-149.27
2023-08-05T18:14:04.893Z,-149.27
2023-08-05T18:16:33.365Z,-149.27
2023-08-05T18:19:01.848Z,-149.27
2023-08-05T18:21:30.136Z,-149.27
2023-08-05T18:23:58.567Z,-149.27
2023-08-05T18:26:26.897Z,-149.27
2023-08-05T18:28:55.191Z,-149.27
2023-08-05T18:31:23.557Z,-149.27
2023-08-05T18:33:52.264Z,-149.27
2023-08-05T18:36:22.075Z,-149.27
2023-08-05T18:38:50.381Z,-149.27
2023-08-05T18:41:18.644Z,19.16
2023-08-05T18:43:46.953Z,19.07
2023-08-05T18:46:15.233Z,19.15
2023-08-05T18:48:43.648Z,19.16
2023-08-05T18:51:11.987Z,19.11
2023-08-05T18:53:41.300Z,19.12
2023-08-05T18:56:11.514Z,19.08
2023-08-05T18:58:39.827Z,19.12
2023-08-05T19:01:08.727Z,19.15
2023-08-05T19:03:38.534Z,18.92
2023-08-05T19:06:06.849Z,18.92
2023-08-05T19:08:35.223Z,19.06
2023-08-05T19:11:03.486Z,19.09
2023-08-05T19:13:31.775Z,19.04
2023-08-05T19:16:04.290Z,19.09
2023-08-05T19:18:36.331Z,18.95
2023-08-05T19:21:09.897Z,19.01
2023-08-05T19:23:38.217Z,19.02
2023-08-05T19:26:10.058Z,19.03
2023-08-05T19:28:38.841Z,18.93
2023-08-05T19:31:10.509Z,18.91
2023-08-05T19:33:41.863Z,18.92
2023-08-05T19:36:15.917Z,18.92
2023-08-05T19:38:45.439Z,18.89
2023-08-05T19:41:13.865Z,18.92
2023-08-05T19:43:42.553Z,18.90
2023-08-05T19:46:13.823Z,18.86
2023-08-05T19:48:45.066Z,18.92
2023-08-05T19:51:15.077Z,18.87
2023-08-05T19:53:44.583Z,18.91
2023-08-05T19:56:12.933Z,18.90
2023-08-05T19:58:41.585Z,18.84
2023-08-05T20:01:10.556Z,18.86
2023-08-05T20:03:40.046Z,18.85
2023-08-05T20:06:08.848Z,18.88
2023-08-05T20:08:37.183Z,18.87
2023-08-05T20:11:05.635Z,18.77
2023-08-05T20:13:33.906Z,18.79
2023-08-05T20:16:03.062Z,18.71
2023-08-05T20:18:31.440Z,18.80
2023-08-05T20:21:00.046Z,18.77
2023-08-05T20:23:29.899Z,18.80
2023-08-05T20:25:59.520Z,18.80
2023-08-05T20:28:27.824Z,18.80
2023-08-05T20:30:56.239Z,18.75
2023-08-05T20:33:24.538Z,18.77
2023-08-05T20:35:52.881Z,18.78
2023-08-05T20:38:21.453Z,18.70
2023-08-05T20:40:49.763Z,18.71
2023-08-05T20:43:18.097Z,18.70
2023-08-05T20:45:46.358Z,18.67
2023-08-05T20:48:15.056Z,18.63
2023-08-05T20:50:43.397Z,18.62
2023-08-05T20:53:13.307Z,18.59
2023-08-05T20:55:41.629Z,18.62
2023-08-05T20:58:10.031Z,18.60
2023-08-05T21:00:40.044Z,18.57
2023-08-05T21:03:08.657Z,18.56
2023-08-05T21:05:37.165Z,18.51
2023-08-05T21:08:05.636Z,18.51
2023-08-05T21:10:33.881Z,18.50
2023-08-05T21:13:02.142Z,18.48
2023-08-05T21:15:30.497Z,18.40
2023-08-05T21:17:58.938Z,18.39
2023-08-05T21:20:27.196Z,18.39
2023-08-05T21:22:55.456Z,18.37
2023-08-05T21:25:28.473Z,18.34
2023-08-05T21:27:56.744Z,18.31
2023-08-05T21:30:26.262Z,18.35
2023-08-05T21:32:57.233Z,18.32
2023-08-05T21:35:25.540Z,18.35
2023-08-05T21:37:54.022Z,18.31
2023-08-05T21:40:22.315Z,18.36
2023-08-05T21:42:50.642Z,18.37
2023-08-05T21:45:19.005Z,18.37
2023-08-05T21:47:47.289Z,18.30
2023-08-05T21:50:15.734Z,18.36
2023-08-05T21:52:44.844Z,18.36
2023-08-05T21:55:13.111Z,18.36
2023-08-05T21:57:41.800Z,18.37
2023-08-05T22:00:13.391Z,18.37
2023-08-05T22:02:42.687Z,18.36
2023-08-05T22:05:11.159Z,18.29
2023-08-05T22:07:39.461Z,18.36
2023-08-05T22:10:08.246Z,18.38
2023-08-05T22:12:36.556Z,18.37
2023-08-05T22:15:06.772Z,18.38
2023-08-05T22:17:35.199Z,18.39
2023-08-05T22:20:04.540Z,18.37
2023-08-05T22:22:33.253Z,18.32
2023-08-05T22:25:02.786Z,18.33
2023-08-05T22:27:31.463Z,18.33
2023-08-05T22:29:59.948Z,18.27
2023-08-05T22:32:28.274Z,18.32
2023-08-05T22:34:56.598Z,18.33
2023-08-05T22:37:25.662Z,18.28
2023-08-05T22:39:54.389Z,18.24
2023-08-05T22:42:23.274Z,18.29
2023-08-05T22:44:55.235Z,18.28
2023-08-05T22:47:23.979Z,18.28
2023-08-05T22:49:52.455Z,18.30
2023-08-05T22:52:20.792Z,18.29
2023-08-05T22:54:49.151Z,18.30
2023-08-05T22:57:17.588Z,18.29
2023-08-05T22:59:45.870Z,18.30
2023-08-05T23:02:14.222Z,18.30
2023-08-05T23:04:42.465Z,18.30
2023-08-05T23:07:10.764Z,18.30
2023-08-05T23:09:39.087Z,18.29
2023-08-05T23:12:08.181Z,18.30
2023-08-05T23:14:36.523Z,18.30
2023-08-05T23:17:04.917Z,18.29
2023-08-05T23:19:33.247Z,18.30
2023-08-05T23:22:01.514Z,18.31
2023-08-05T23:24:29.901Z,18.32
2023-08-05T23:26:58.170Z,18.32
2023-08-05T23:29:27.763Z,18.27
2023-08-05T23:31:56.085Z,18.22
2023-08-05T23:34:24.396Z,18.28
2023-08-05T23:36:54.332Z,18.31
2023-08-05T23:39:22.633Z,18.30
2023-08-05T23:41:51.357Z,18.30
2023-08-05T23:44:19.807Z,18.22
2023-08-05T23:46:48.143Z,18.28
2023-08-05T23:49:16.619Z,18.31
2023-08-05T23:51:44.935Z,18.32
2023-08-05T23:54:13.282Z,18.36
2023-08-05T23:56:41.568Z,18.35
2023-08-05T23:59:09.826Z,18.34
